Time;durP1;ratioP1;P1;durP2;ratioP2;P2;SDS_P1;SDS_P2;PMS_P1;PMS_P2;Temp;Humidity;BMP_temperature;BMP_pressure;BME280_temperature;BME280_humidity;BME280_pressure;Samples;Min_cycle;Max_cycle;Signal;HPM_P1;HPM_P2
2024/02/07 00:01:49;;;;;;;13.77;3.67;;;;;;;5.05;96.96;100015.63;4998252;28;20046;-63
2024/02/07 00:04:16;;;;;;;12.20;4.93;;;;;;;5.07;97.28;100015.28;5001621;28;20050;-63
2024/02/07 00:06:44;;;;;;;13.20;4.53;;;;;;;5.05;97.06;100014.81;5014520;28;20133;-63
2024/02/07 00:09:11;;;;;;;19.73;4.93;;;;;;;5.05;97.34;100012.06;5010607;28;20049;-62
2024/02/07 00:11:39;;;;;;;20.08;4.53;;;;;;;5.08;97.44;100017.72;5006063;28;20069;-62
2024/02/07 00:14:07;;;;;;;10.80;4.05;;;;;;;5.09;97.19;100019.31;5006522;28;20050;-63
2024/02/07 00:16:35;;;;;;;15.23;6.00;;;;;;;5.11;97.07;100022.53;5006203;28;20088;-63
2024/02/07 00:19:03;;;;;;;23.00;5.15;;;;;;;5.12;97.39;100029.63;5005722;28;20073;-62
2024/02/07 00:21:30;;;;;;;15.55;4.68;;;;;;;5.10;97.22;100036.59;5005958;28;20415;-63
2024/02/07 00:23:59;;;;;;;18.35;5.05;;;;;;;5.04;97.24;100041.44;5006196;28;20057;-63
2024/02/07 00:26:26;;;;;;;17.77;6.63;;;;;;;5.04;97.64;100052.41;5006178;28;20041;-63
2024/02/07 00:28:54;;;;;;;16.17;5.30;;;;;;;5.02;97.26;100045.63;5005988;28;20046;-63
2024/02/07 00:31:22;;;;;;;13.55;4.28;;;;;;;5.04;97.58;100055.16;5006404;28;20054;-63
2024/02/07 00:33:49;;;;;;;15.07;5.53;;;;;;;5.03;97.34;100048.03;4989003;28;20053;-63
2024/02/07 00:36:17;;;;;;;17.40;6.20;;;;;;;5.01;97.53;100058.53;5006272;28;21004;-63
2024/02/07 00:38:45;;;;;;;12.45;4.65;;;;;;;5.01;97.36;100058.53;5004543;28;20052;-63
2024/02/07 00:41:23;;;;;;;12.45;4.50;;;;;;;5.02;97.64;100053.88;5006441;28;20526;-63
2024/02/07 00:43:52;;;;;;;11.93;4.03;;;;;;;5.02;97.42;100051.94;5006190;28;20049;-63
2024/02/07 00:46:21;;;;;;;15.85;4.45;;;;;;;5.03;97.49;100042.56;5006050;28;20523;-63
2024/02/07 00:48:48;;;;;;;19.95;6.10;;;;;;;5.03;97.42;100050.00;5006647;28;20061;-63
2024/02/07 00:51:16;;;;;;;11.13;4.00;;;;;;;5.02;97.65;100059.34;5005977;28;20061;-63
2024/02/07 00:53:43;;;;;;;19.50;5.15;;;;;;;5.00;97.52;100043.22;5005931;28;20046;-63
2024/02/07 00:56:11;;;;;;;16.58;3.90;;;;;;;4.99;97.63;100041.59;5004655;28;20065;-63
2024/02/07 00:58:39;;;;;;;18.35;4.30;;;;;;;4.98;97.70;100034.50;5006653;28;20052;-62
2024/02/07 01:01:07;;;;;;;15.27;4.20;;;;;;;5.00;97.95;100032.25;5005615;28;20062;-62
2024/02/07 01:03:35;;;;;;;14.68;4.47;;;;;;;4.99;97.92;100030.63;5005861;28;20056;-62
2024/02/07 01:06:02;;;;;;;12.40;3.83;;;;;;;5.02;98.11;100019.00;5007811;28;20046;-63
2024/02/07 01:08:30;;;;;;;14.13;6.20;;;;;;;5.00;97.77;100010.31;5005963;28;20072;-63
2024/02/07 01:10:57;;;;;;;11.20;3.72;;;;;;;5.00;98.05;100004.81;5005525;28;20054;-63
2024/02/07 01:13:24;;;;;;;20.83;4.65;;;;;;;5.00;98.05;100015.81;5005721;28;20046;-64
2024/02/07 01:15:52;;;;;;;10.77;3.40;;;;;;;5.01;98.18;100022.06;5006357;28;20471;-62
2024/02/07 01:18:19;;;;;;;9.13;3.47;;;;;;;5.02;97.94;100021.75;5006684;28;20412;-63
2024/02/07 01:20:47;;;;;;;11.15;3.88;;;;;;;5.03;98.21;100023.34;5009132;28;20061;-63
2024/02/07 01:23:15;;;;;;;10.52;3.67;;;;;;;5.04;97.88;100033.19;5009554;28;20053;-63
2024/02/07 01:25:42;;;;;;;12.40;4.22;;;;;;;5.04;97.87;100027.72;5009028;28;20050;-64
2024/02/07 01:28:10;;;;;;;15.95;4.35;;;;;;;5.01;98.08;100028.38;5009160;28;20050;-63
2024/02/07 01:30:37;;;;;;;15.10;3.80;;;;;;;5.01;98.38;100028.38;5012701;28;20057;-63
2024/02/07 01:33:06;;;;;;;15.65;4.90;;;;;;;4.98;98.11;100026.28;5017702;28;20054;-63
2024/02/07 01:35:34;;;;;;;18.60;3.50;;;;;;;4.98;98.23;100020.78;5008947;28;20041;-63
2024/02/07 01:38:07;;;;;;;13.07;3.75;;;;;;;4.99;98.47;100016.09;5008927;28;20088;-63
2024/02/07 01:40:42;;;;;;;12.15;3.97;;;;;;;4.96;98.15;100014.81;4990503;28;20122;-64
2024/02/07 01:43:11;;;;;;;15.52;3.95;;;;;;;4.95;98.35;100021.44;5007882;28;20046;-63
2024/02/07 01:45:39;;;;;;;13.70;4.82;;;;;;;4.92;98.41;100014.66;5009378;28;20049;-62
2024/02/07 01:48:07;;;;;;;15.88;3.75;;;;;;;4.90;98.38;100022.41;5009157;28;20637;-63
2024/02/07 01:50:38;;;;;;;12.07;4.28;;;;;;;4.90;98.36;100024.34;5009329;28;20050;-63
2024/02/07 01:53:09;;;;;;;11.73;4.28;;;;;;;4.88;98.16;100021.94;5008719;28;20408;-62
2024/02/07 01:55:38;;;;;;;14.35;3.80;;;;;;;4.89;98.29;100028.25;5007560;28;20050;-63
2024/02/07 01:58:07;;;;;;;11.00;4.47;;;;;;;4.87;98.09;100014.06;5008484;28;20042;-62
2024/02/07 02:00:36;;;;;;;11.55;4.07;;;;;;;4.85;97.41;100019.03;5007143;28;20159;-62
2024/02/07 02:03:03;;;;;;;17.38;4.78;;;;;;;4.82;97.90;100019.66;4971980;28;20049;-62
2024/02/07 02:05:31;;;;;;;14.93;4.93;;;;;;;4.81;97.76;100029.06;5001805;28;20065;-62
2024/02/07 02:07:59;;;;;;;17.23;5.05;;;;;;;4.79;97.79;100026.63;5009375;28;20054;-62
2024/02/07 02:10:27;;;;;;;14.15;4.60;;;;;;;4.77;98.15;100022.59;5004811;28;20412;-62
2024/02/07 02:12:55;;;;;;;12.05;4.60;;;;;;;4.77;98.00;100015.16;5009158;28;20034;-63
2024/02/07 02:15:23;;;;;;;14.55;4.22;;;;;;;4.73;97.53;100022.44;5009255;28;20152;-64
2024/02/07 02:17:52;;;;;;;15.98;4.20;;;;;;;4.68;97.83;100022.63;4999088;28;20046;-62
2024/02/07 02:20:21;;;;;;;16.48;4.95;;;;;;;4.64;97.69;100023.56;4981374;28;20554;-62
2024/02/07 02:23:05;;;;;;;12.95;3.97;;;;;;;4.59;97.81;100027.28;5008167;28;20571;-64
2024/02/07 02:26:10;;;;;;;15.75;3.97;;;;;;;4.48;97.41;100020.50;4994422;28;20046;-63
2024/02/07 02:29:04;;;;;;;12.10;3.78;;;;;;;4.39;97.67;100041.63;5004180;28;20941;-61
2024/02/07 02:31:34;;;;;;;17.63;4.55;;;;;;;4.30;97.21;100038.88;5008910;28;20046;-63
2024/02/07 02:34:03;;;;;;;12.32;4.07;;;;;;;4.22;97.80;100028.72;4976123;28;20046;-63
2024/02/07 02:36:30;;;;;;;17.88;4.28;;;;;;;4.16;97.34;100049.16;5002682;28;20050;-63
2024/02/07 02:38:58;;;;;;;13.07;4.43;;;;;;;4.11;97.72;100049.31;4991231;28;20047;-62
2024/02/07 02:41:26;;;;;;;14.27;4.43;;;;;;;4.07;97.35;100045.63;5003301;28;20046;-62
2024/02/07 02:43:53;;;;;;;14.32;3.78;;;;;;;4.04;98.00;100043.50;5008806;28;20053;-62
2024/02/07 02:46:21;;;;;;;14.57;4.03;;;;;;;4.01;97.84;100049.63;5000997;28;20066;-63
2024/02/07 02:48:48;;;;;;;17.98;4.63;;;;;;;4.00;98.00;100048.00;5008711;28;20049;-62
2024/02/07 02:51:16;;;;;;;12.80;3.85;;;;;;;3.93;97.64;100047.66;5008883;28;20061;-63
2024/02/07 02:53:43;;;;;;;11.95;3.95;;;;;;;3.91;97.41;100047.19;5008579;28;20053;-63
2024/02/07 02:56:12;;;;;;;9.25;3.28;;;;;;;3.88;97.44;100042.34;5009048;28;20439;-62
2024/02/07 02:58:39;;;;;;;10.25;3.90;;;;;;;3.85;97.74;100045.72;5008365;28;20081;-62
2024/02/07 03:01:11;;;;;;;15.00;4.05;;;;;;;3.79;97.38;100046.97;5073851;22;20066;-64
2024/02/07 03:03:44;;;;;;;12.75;4.43;;;;;;;3.77;97.71;100043.75;4979965;28;20058;-62
2024/02/07 03:06:28;;;;;;;20.65;5.07;;;;;;;3.75;97.85;100040.53;4986064;28;20061;-62
2024/02/07 03:09:07;;;;;;;12.98;3.28;;;;;;;3.74;97.72;100036.16;4988424;28;20058;-62
2024/02/07 03:11:35;;;;;;;14.43;4.68;;;;;;;3.73;97.84;100033.75;4977277;28;20050;-61
2024/02/07 03:14:05;;;;;;;15.10;3.70;;;;;;;3.71;97.57;100028.59;4989102;28;20138;-62
2024/02/07 03:16:34;;;;;;;9.07;3.00;;;;;;;3.67;97.66;100019.41;4989290;28;20057;-62
2024/02/07 03:19:01;;;;;;;14.02;4.32;;;;;;;3.65;98.06;100014.22;4988771;28;20054;-62
2024/02/07 03:21:30;;;;;;;18.65;3.85;;;;;;;3.62;97.88;100005.88;4988423;28;20597;-63
2024/02/07 03:23:57;;;;;;;20.30;5.00;;;;;;;3.67;98.07;100014.75;4988256;28;20050;-62
2024/02/07 03:26:25;;;;;;;11.25;3.95;;;;;;;3.71;97.57;100000.44;4988759;28;20043;-62
2024/02/07 03:28:52;;;;;;;12.43;3.83;;;;;;;3.70;98.14;99996.88;4988053;28;20050;-62
2024/02/07 03:31:20;;;;;;;16.85;4.45;;;;;;;3.72;97.99;99985.59;4971101;28;20050;-62
2024/02/07 03:33:48;;;;;;;10.13;3.67;;;;;;;3.71;97.78;99982.06;4987718;28;20034;-63
2024/02/07 03:36:15;;;;;;;14.65;4.95;;;;;;;3.63;97.50;99997.34;4988064;28;20400;-63
2024/02/07 03:38:44;;;;;;;10.55;3.95;;;;;;;3.55;97.49;99992.63;4987542;28;20395;-63
2024/02/07 03:41:11;;;;;;;19.52;4.72;;;;;;;3.48;98.15;99996.97;4986678;28;20054;-63
2024/02/07 03:43:39;;;;;;;13.48;6.50;;;;;;;3.47;98.28;99987.94;4987264;28;20049;-63
2024/02/07 03:46:06;;;;;;;16.63;6.45;;;;;;;3.51;98.15;99979.91;4987783;28;20412;-62
2024/02/07 03:48:37;;;;;;;18.30;6.20;;;;;;;3.48;98.21;99977.81;4986707;28;20415;-62
2024/02/07 03:51:08;;;;;;;17.25;5.47;;;;;;;3.42;98.43;99968.94;4988016;28;20046;-62
2024/02/07 03:53:36;;;;;;;11.57;4.68;;;;;;;3.38;98.42;99953.47;4987699;28;20582;-63
2024/02/07 03:56:04;;;;;;;17.63;5.03;;;;;;;3.39;98.54;99944.16;4970185;28;20050;-62
2024/02/07 03:58:31;;;;;;;15.57;4.63;;;;;;;3.37;98.64;99938.16;4987148;28;20054;-63
2024/02/07 04:00:59;;;;;;;18.48;4.22;;;;;;;3.35;98.97;99932.22;4986500;28;20608;-63
2024/02/07 04:03:26;;;;;;;9.93;4.82;;;;;;;3.36;98.81;99931.09;4987150;28;20057;-63
2024/02/07 04:05:54;;;;;;;16.15;5.53;;;;;;;3.35;99.07;99943.97;4986892;28;20050;-63
2024/02/07 04:08:21;;;;;;;15.88;4.50;;;;;;;3.34;99.06;99936.06;4987497;28;20046;-62
2024/02/07 04:10:51;;;;;;;17.70;4.90;;;;;;;3.32;99.08;99932.84;4987228;28;20058;-63
2024/02/07 05:16:45;;;;;;;18.17;4.78;;;;;;;3.23;100.00;99973.06;4989778;28;20058;-63
2024/02/07 05:19:13;;;;;;;19.00;5.07;;;;;;;3.26;100.00;99972.41;4990117;28;20050;-63
2024/02/07 05:21:41;;;;;;;11.63;6.15;;;;;;;3.32;100.00;99977.44;4990057;28;20050;-63
2024/02/07 05:24:10;;;;;;;19.25;6.63;;;;;;;3.36;100.00;99972.91;4990395;28;20053;-63
2024/02/07 05:26:39;;;;;;;11.85;5.18;;;;;;;3.36;99.88;99974.88;4989802;28;20400;-63
2024/02/07 05:29:06;;;;;;;13.27;5.22;;;;;;;3.37;100.00;99971.81;4989999;28;20042;-63
2024/02/07 05:31:33;;;;;;;19.20;6.88;;;;;;;3.39;99.77;99982.44;4972577;28;20051;-63
2024/02/07 05:34:01;;;;;;;14.70;4.88;;;;;;;3.42;99.68;99979.06;4989903;28;20074;-64
2024/02/07 05:36:29;;;;;;;14.10;6.05;;;;;;;3.45;99.88;99972.97;4990208;28;20053;-63
2024/02/07 05:38:56;;;;;;;24.30;5.47;;;;;;;3.45;100.00;99964.75;4989986;28;20046;-63
2024/02/07 05:41:24;;;;;;;20.35;6.47;;;;;;;3.39;99.49;99974.25;4971926;28;20058;-64
2024/02/07 05:43:54;;;;;;;23.20;7.55;;;;;;;3.35;99.67;99973.25;4989785;28;20448;-63
2024/02/07 05:46:22;;;;;;;17.27;8.50;;;;;;;3.35;100.00;99973.25;4990162;28;20825;-64
2024/02/07 05:48:49;;;;;;;20.35;8.45;;;;;;;3.38;100.00;99970.69;4990361;28;20057;-63
2024/02/07 05:51:21;;;;;;;17.40;6.72;;;;;;;3.41;100.00;99963.78;4990252;28;20057;-64
2024/02/07 05:53:49;;;;;;;33.33;8.82;;;;;;;3.39;100.00;99968.78;4989222;28;20500;-63
2024/02/07 05:56:16;;;;;;;16.98;6.13;;;;;;;3.37;100.00;99971.00;4989525;28;20050;-63
2024/02/07 05:58:45;;;;;;;14.45;5.63;;;;;;;3.31;100.00;99970.31;4989291;28;20798;-64
2024/02/07 06:01:13;;;;;;;11.98;5.32;;;;;;;3.30;100.00;99966.00;4987707;28;20070;-63
2024/02/07 06:03:41;;;;;;;11.13;5.05;;;;;;;3.31;100.00;99969.53;4989084;28;20089;-63
2024/02/07 06:06:08;;;;;;;21.88;5.15;;;;;;;3.32;100.00;99971.94;4988870;28;20508;-63
2024/02/07 06:08:35;;;;;;;12.50;4.65;;;;;;;3.34;100.00;99971.63;4989585;28;20050;-63
2024/02/07 06:11:03;;;;;;;14.65;4.22;;;;;;;3.34;100.00;99977.09;4988801;28;20050;-63
2024/02/07 06:13:31;;;;;;;11.70;3.95;;;;;;;3.34;100.00;99968.88;4989139;28;20330;-63
2024/02/07 06:15:58;;;;;;;15.55;4.47;;;;;;;3.33;100.00;99972.75;4988530;28;20053;-63
2024/02/07 06:18:26;;;;;;;13.20;4.63;;;;;;;3.32;100.00;99982.09;4988992;28;20054;-63
2024/02/07 06:20:53;;;;;;;13.50;4.65;;;;;;;3.33;100.00;99976.31;4989015;28;20412;-63
2024/02/07 06:23:21;;;;;;;16.23;3.90;;;;;;;3.34;100.00;99986.13;4989098;28;20444;-63
2024/02/07 06:25:51;;;;;;;13.75;4.30;;;;;;;3.39;100.00;99982.44;4971736;28;20046;-64
2024/02/07 06:28:18;;;;;;;12.55;4.28;;;;;;;3.41;100.00;99980.19;4970998;28;20500;-63
2024/02/07 06:30:47;;;;;;;19.27;5.15;;;;;;;3.40;100.00;99989.53;4988576;28;20058;-63
2024/02/07 06:33:15;;;;;;;13.32;4.43;;;;;;;3.41;100.00;99991.16;4988742;28;20043;-64
2024/02/07 06:35:42;;;;;;;12.02;5.03;;;;;;;3.41;100.00;99986.47;4976341;28;20053;-64
2024/02/07 06:38:10;;;;;;;10.77;4.50;;;;;;;3.42;100.00;99990.00;4988891;28;20064;-64
2024/02/07 06:40:37;;;;;;;16.90;4.72;;;;;;;3.38;100.00;99992.59;4988901;28;20062;-63
2024/02/07 06:43:04;;;;;;;18.17;4.55;;;;;;;3.38;100.00;99992.59;4988608;28;20785;-64
2024/02/07 06:45:32;;;;;;;8.68;3.83;;;;;;;3.38;100.00;99987.13;4988764;28;20046;-62
2024/02/07 06:48:00;;;;;;;17.55;3.90;;;;;;;3.42;100.00;99987.28;4987270;28;20054;-63
2024/02/07 06:50:28;;;;;;;9.07;3.60;;;;;;;3.41;100.00;99988.41;4969548;28;20089;-63
2024/02/07 06:52:55;;;;;;;18.27;4.32;;;;;;;3.42;100.00;99988.09;4983788;28;20582;-63
2024/02/07 06:55:23;;;;;;;13.25;4.05;;;;;;;3.44;100.00;99987.78;4988264;28;20042;-63
2024/02/07 06:57:51;;;;;;;11.05;4.00;;;;;;;3.45;100.00;99992.13;4988645;28;20058;-63
2024/02/07 07:00:18;;;;;;;14.77;4.30;;;;;;;3.44;100.00;99998.72;4988556;28;20412;-63
2024/02/07 07:02:46;;;;;;;9.00;3.53;;;;;;;3.45;100.00;100003.06;4988060;28;20484;-63
2024/02/07 07:05:16;;;;;;;8.90;3.63;;;;;;;3.44;100.00;99993.25;4988628;28;20512;-63
2024/02/07 07:07:43;;;;;;;16.63;3.88;;;;;;;3.45;100.00;99997.59;4987561;28;20057;-64
2024/02/07 07:10:11;;;;;;;10.02;3.50;;;;;;;3.43;100.00;99989.72;4988227;28;20054;-63
2024/02/07 07:12:38;;;;;;;18.70;4.32;;;;;;;3.46;100.00;99993.75;4988213;28;20054;-63
2024/02/07 07:15:06;;;;;;;17.63;4.60;;;;;;;3.46;100.00;99985.53;4987784;28;20053;-63
2024/02/07 07:17:53;;;;;;;17.67;4.53;;;;;;;3.44;100.00;99985.81;4977372;28;20108;-63
2024/02/07 07:20:20;;;;;;;15.57;5.22;;;;;;;3.42;100.00;99990.00;4987935;28;20062;-64
2024/02/07 07:22:47;;;;;;;14.73;5.00;;;;;;;3.41;100.00;99997.44;4988201;28;20134;-65
2024/02/07 07:25:33;;;;;;;10.95;4.10;;;;;;;3.42;100.00;99993.56;4988333;28;20571;-63
2024/02/07 07:28:01;;;;;;;14.15;4.22;;;;;;;3.44;100.00;99988.56;4988205;28;20046;-62
2024/02/07 07:30:28;;;;;;;15.07;3.92;;;;;;;3.40;100.00;99989.53;4987911;28;20057;-63
2024/02/07 07:32:55;;;;;;;9.52;4.25;;;;;;;3.38;100.00;99994.50;4985573;28;20483;-62
2024/02/07 07:35:23;;;;;;;16.90;4.15;;;;;;;3.38;100.00;99991.78;4986448;28;20057;-63
2024/02/07 07:37:55;;;;;;;15.73;4.85;;;;;;;3.37;100.00;99992.88;4976010;28;20053;-64
2024/02/07 07:40:23;;;;;;;;;;;;;;;3.35;100.00;99995.94;4986757;28;20042;-63
2024/02/07 07:42:50;;;;;;;10.75;3.85;;;;;;;3.34;100.00;99990.78;4987532;28;19957;-63
2024/02/07 07:45:18;;;;;;;10.27;3.83;;;;;;;3.32;100.00;99984.81;4986835;28;20058;-63
2024/02/07 07:47:45;;;;;;;11.73;3.58;;;;;;;3.32;100.00;99985.63;4987521;28;20043;-63
2024/02/07 07:50:12;;;;;;;9.70;3.90;;;;;;;3.34;100.00;99990.78;4987356;28;20054;-64
2024/02/07 07:52:41;;;;;;;13.25;3.70;;;;;;;3.35;100.00;99990.47;4985560;28;20046;-63
2024/02/07 07:55:08;;;;;;;10.27;3.83;;;;;;;3.34;100.00;99988.03;4974057;28;20515;-63
2024/02/07 07:57:36;;;;;;;10.73;3.75;;;;;;;3.32;100.00;99991.09;4969970;28;20069;-64
2024/02/07 08:00:03;;;;;;;10.48;3.20;;;;;;;3.32;100.00;99993.03;4987363;28;20053;-63
2024/02/07 08:02:31;;;;;;;7.47;3.20;;;;;;;3.31;100.00;100008.63;4987600;28;20050;-63
2024/02/07 08:04:58;;;;;;;12.35;3.97;;;;;;;3.32;100.00;100006.69;4987525;28;20732;-63
2024/02/07 08:07:26;;;;;;;13.50;3.90;;;;;;;3.31;100.00;100008.63;4985560;28;20053;-63
2024/02/07 08:09:53;;;;;;;10.52;3.75;;;;;;;3.33;100.00;100014.63;4987598;28;20596;-63
2024/02/07 08:12:20;;;;;;;8.70;3.17;;;;;;;3.33;100.00;100000.13;4987860;28;20516;-63
2024/02/07 08:14:48;;;;;;;10.57;3.53;;;;;;;3.33;100.00;100003.66;4987397;28;20058;-63
2024/02/07 08:17:18;;;;;;;10.85;3.33;;;;;;;3.35;100.00;100006.06;4967761;28;20053;-63
2024/02/07 08:19:46;;;;;;;10.65;4.43;;;;;;;3.31;100.00;99996.91;4986806;28;20046;-63
2024/02/07 08:22:14;;;;;;;10.07;3.72;;;;;;;3.26;100.00;100003.28;4987219;28;20860;-61
2024/02/07 08:24:41;;;;;;;14.65;4.18;;;;;;;3.21;100.00;100003.44;4986524;28;20738;-62
2024/02/07 08:27:09;;;;;;;13.35;3.65;;;;;;;3.15;100.00;100003.91;4987598;28;20058;-63
2024/02/07 08:29:36;;;;;;;9.30;4.25;;;;;;;3.12;100.00;100004.53;4987864;28;20055;-61
2024/02/07 08:32:04;;;;;;;11.93;3.55;;;;;;;3.10;100.00;100002.09;4987743;28;20428;-63
2024/02/07 08:34:31;;;;;;;20.60;4.25;;;;;;;3.07;100.00;100003.53;4987378;28;20053;-62
2024/02/07 08:36:59;;;;;;;20.40;4.13;;;;;;;3.04;100.00;99997.91;4984817;28;20547;-63
2024/02/07 08:39:27;;;;;;;17.83;3.88;;;;;;;3.02;100.00;100000.91;4987210;28;20085;-63
2024/02/07 08:41:54;;;;;;;14.52;4.38;;;;;;;3.01;100.00;100021.19;4970954;28;20051;-63
2024/02/07 08:44:22;;;;;;;6.70;3.17;;;;;;;3.05;100.00;100015.91;4987491;28;20046;-63
2024/02/07 08:46:49;;;;;;;15.15;3.38;;;;;;;3.07;100.00;100014.47;4987661;28;20061;-63
2024/02/07 08:49:19;;;;;;;9.88;3.17;;;;;;;3.10;100.00;100012.25;4988030;28;20051;-63
2024/02/07 08:51:46;;;;;;;20.23;5.15;;;;;;;3.08;100.00;100005.16;4987834;28;20051;-63
2024/02/07 08:54:14;;;;;;;11.65;4.15;;;;;;;3.07;100.00;100009.00;4987506;28;20054;-64
2024/02/07 08:56:41;;;;;;;11.65;3.67;;;;;;;3.09;100.00;100005.97;4987952;28;20057;-63
2024/02/07 08:59:08;;;;;;;14.98;3.53;;;;;;;3.10;100.00;100006.78;4987058;28;20061;-62
2024/02/07 09:01:36;;;;;;;10.35;3.30;;;;;;;3.10;100.00;100012.25;4987383;28;20497;-63
2024/02/07 09:04:04;;;;;;;9.18;3.00;;;;;;;3.08;99.95;100021.56;4987773;28;20058;-62
2024/02/07 09:06:31;;;;;;;10.90;3.72;;;;;;;3.11;100.00;100020.13;4987658;28;20043;-62
2024/02/07 09:08:59;;;;;;;16.38;4.72;;;;;;;3.14;100.00;100022.22;4986977;28;20042;-65
2024/02/07 09:11:26;;;;;;;12.15;3.60;;;;;;;3.15;100.00;100017.56;4987247;28;20508;-63
2024/02/07 09:13:53;;;;;;;16.00;4.13;;;;;;;3.20;100.00;100014.69;4987774;28;20047;-62
2024/02/07 09:16:21;;;;;;;16.67;5.07;;;;;;;3.27;100.00;100017.78;4987983;28;20413;-62
2024/02/07 09:18:48;;;;;;;16.50;6.55;;;;;;;3.32;100.00;100014.91;4987148;28;20051;-63
2024/02/07 09:21:17;;;;;;;17.40;5.45;;;;;;;3.33;99.43;100017.34;4988142;28;20061;-63
2024/02/07 09:23:47;;;;;;;26.05;5.53;;;;;;;3.37;99.83;100020.25;4986948;28;20050;-63
2024/02/07 09:26:14;;;;;;;22.45;5.57;;;;;;;3.38;99.46;100017.22;4986721;28;20050;-63
2024/02/07 09:28:42;;;;;;;18.10;4.85;;;;;;;3.42;99.68;100020.09;4974583;28;20424;-63
2024/02/07 09:31:09;;;;;;;19.60;5.47;;;;;;;3.45;99.34;100022.22;4987597;28;20049;-63
2024/02/07 09:33:38;;;;;;;15.63;4.53;;;;;;;3.45;99.47;100031.22;4987156;28;20404;-63
2024/02/07 09:36:05;;;;;;;14.40;5.50;;;;;;;3.45;98.81;100019.47;4986879;28;20046;-62
2024/02/07 09:38:33;;;;;;;11.70;5.53;;;;;;;3.48;99.04;100024.31;4985639;28;20058;-63
2024/02/07 09:41:04;;;;;;;23.73;5.68;;;;;;;3.52;99.00;100028.84;4990751;28;20050;-63
2024/02/07 09:43:32;;;;;;;10.90;4.00;;;;;;;3.53;99.43;100021.44;4989294;28;20043;-62
2024/02/07 09:46:00;;;;;;;13.00;3.72;;;;;;;3.55;99.14;100014.53;4990575;28;20053;-62
2024/02/07 09:48:28;;;;;;;14.23;5.43;;;;;;;3.59;99.19;100020.19;4990471;28;20500;-63
2024/02/07 09:51:00;;;;;;;32.00;9.13;;;;;;;3.63;98.76;100023.88;4990386;28;20046;-63
2024/02/07 09:53:30;;;;;;;;;;;;;;;3.65;98.89;100024.41;4991066;28;20073;-62
2024/02/07 09:56:02;;;;;;;14.30;5.43;;;;;;;3.69;98.85;100017.16;4989637;28;19922;-63
2024/02/07 09:58:30;;;;;;;18.30;6.25;;;;;;;3.73;98.48;100031.03;4990598;28;20057;-63
2024/02/07 10:00:58;;;;;;;11.65;4.60;;;;;;;3.78;98.33;100026.22;4989553;28;20149;-63
2024/02/07 10:03:30;;;;;;;14.75;5.55;;;;;;;3.83;98.56;100017.03;4990199;28;20050;-63
2024/02/07 10:05:59;;;;;;;7.60;2.42;;;;;;;3.84;98.02;100016.72;4989721;28;20047;-63
2024/02/07 10:08:27;;;;;;;10.20;3.33;;;;;;;3.84;98.04;100016.72;4988216;28;20054;-62
2024/02/07 10:10:54;;;;;;;13.65;3.05;;;;;;;3.86;98.08;100030.09;4988334;28;20047;-62
2024/02/07 10:13:22;;;;;;;17.45;4.30;;;;;;;3.90;98.12;100037.34;4989867;28;20401;-62
2024/02/07 10:15:53;;;;;;;10.85;3.22;;;;;;;3.91;97.71;100038.97;4977522;28;20054;-63
2024/02/07 10:18:20;;;;;;;14.10;2.17;;;;;;;3.94;97.61;100034.78;4984451;28;20115;-63
2024/02/07 10:20:54;;;;;;;8.35;2.47;;;;;;;3.96;97.63;100029.78;4989487;28;20511;-63
2024/02/07 10:23:22;;;;;;;5.97;2.40;;;;;;;4.01;97.36;100033.19;4972739;28;20053;-64
2024/02/07 10:25:52;;;;;;;13.52;2.95;;;;;;;4.03;97.13;100024.66;4989769;28;20527;-63
2024/02/07 10:28:21;;;;;;;12.80;2.95;;;;;;;4.09;97.25;100024.19;4989837;28;20054;-63
2024/02/07 10:31:02;;;;;;;16.35;3.42;;;;;;;4.13;97.00;100018.88;4989701;28;20047;-63
2024/02/07 10:33:40;;;;;;;12.85;2.65;;;;;;;4.19;97.02;100012.09;4988986;28;20057;-64
2024/02/07 10:36:11;;;;;;;16.70;3.10;;;;;;;4.23;96.58;100013.09;4989512;28;20038;-64
2024/02/07 10:38:40;;;;;;;13.00;3.15;;;;;;;4.28;96.49;100015.69;4989792;28;20042;-62
2024/02/07 10:41:07;;;;;;;15.65;3.28;;;;;;;4.35;96.44;100015.19;4989461;28;20054;-62
2024/02/07 10:43:38;;;;;;;8.77;2.80;;;;;;;4.39;96.62;100016.97;4988919;28;20046;-61
2024/02/07 10:46:13;;;;;;;8.00;2.47;;;;;;;4.41;96.15;100016.63;4981819;28;20416;-62
2024/02/07 10:48:42;;;;;;;11.65;2.53;;;;;;;4.48;96.29;100028.72;4976682;28;20572;-62
2024/02/07 10:51:10;;;;;;;9.40;4.00;;;;;;;4.51;96.06;100019.06;4989554;28;20550;-60
2024/02/07 10:53:38;;;;;;;14.32;5.45;;;;;;;4.54;96.13;100018.41;4986345;28;20046;-61
2024/02/07 10:56:11;;;;;;;6.93;2.25;;;;;;;4.54;95.99;100007.44;4988448;28;20065;-61
2024/02/07 10:58:39;;;;;;;8.13;2.95;;;;;;;4.55;95.93;100003.59;4981806;28;20051;-61
2024/02/07 11:01:07;;;;;;;6.32;2.10;;;;;;;4.59;95.83;100005.34;4977746;28;20058;-61
2024/02/07 11:03:35;;;;;;;13.98;4.95;;;;;;;4.60;95.78;99996.00;4989447;28;20057;-60
2024/02/07 11:06:04;;;;;;;9.68;3.05;;;;;;;4.63;95.50;99997.28;4988614;28;20050;-62
2024/02/07 11:08:32;;;;;;;11.30;2.25;;;;;;;4.65;95.34;100003.25;4988900;28;20081;-62
2024/02/07 11:11:02;;;;;;;7.43;3.55;;;;;;;4.66;95.32;99999.41;4988740;28;20076;-62
2024/02/07 11:13:30;;;;;;;18.73;3.45;;;;;;;4.68;95.24;100000.69;4989169;28;20047;-61
2024/02/07 11:15:58;;;;;;;5.85;1.92;;;;;;;4.70;95.02;100000.34;4988973;28;20043;-61
2024/02/07 11:18:27;;;;;;;10.70;2.50;;;;;;;4.73;95.13;100006.00;4988940;28;20050;-61
2024/02/07 11:20:56;;;;;;;12.98;2.88;;;;;;;4.79;95.11;100004.69;4988035;28;20605;-61
2024/02/07 11:23:36;;;;;;;11.35;2.38;;;;;;;4.84;94.70;100000.97;4988916;28;20049;-62
2024/02/07 11:26:05;;;;;;;7.20;2.45;;;;;;;4.88;94.47;99996.44;4976415;28;20042;-62
2024/02/07 11:28:33;;;;;;;11.95;5.05;;;;;;;4.93;94.81;99996.28;4988973;28;20500;-61
2024/02/07 11:31:02;;;;;;;7.35;1.92;;;;;;;4.98;94.11;100000.81;4988366;28;20397;-61
2024/02/07 11:33:36;;;;;;;9.52;2.03;;;;;;;5.04;94.22;99994.00;4970385;28;20424;-61
2024/02/07 11:36:13;;;;;;;13.95;3.05;;;;;;;5.12;94.20;99991.22;4988655;28;20050;-61
2024/02/07 11:38:40;;;;;;;7.85;2.10;;;;;;;5.19;93.89;99974.28;4988305;28;20574;-60
2024/02/07 11:41:08;;;;;;;8.45;2.15;;;;;;;5.27;93.73;99965.97;4988312;28;20069;-61
2024/02/07 11:43:39;;;;;;;6.43;1.73;;;;;;;5.31;93.30;99966.97;4988128;28;20076;-62
2024/02/07 11:46:06;;;;;;;6.88;2.30;;;;;;;5.38;93.22;99969.19;4987319;28;20054;-61
2024/02/07 11:48:41;;;;;;;9.02;1.60;;;;;;;5.43;93.02;99986.28;4970604;28;20050;-61
2024/02/07 11:51:10;;;;;;;7.88;1.65;;;;;;;5.47;93.01;99979.00;4988478;28;20053;-61
2024/02/07 11:53:39;;;;;;;10.05;1.63;;;;;;;5.51;92.47;99977.19;4988614;28;20050;-61
2024/02/07 11:56:22;;;;;;;11.77;2.15;;;;;;;5.56;92.63;99984.44;4987730;28;20050;-61
2024/02/07 11:58:50;;;;;;;;;;;;;;;5.60;92.48;99985.41;4988758;28;20042;-61
2024/02/07 12:01:17;;;;;;;5.50;1.75;;;;;;;5.65;92.38;99995.38;4987849;28;20499;-61
2024/02/07 12:03:45;;;;;;;9.38;2.25;;;;;;;5.67;91.95;99988.41;4987153;28;20051;-61
2024/02/07 12:06:12;;;;;;;8.18;2.33;;;;;;;5.73;91.84;99980.78;4988005;28;20058;-62
2024/02/07 12:08:41;;;;;;;9.82;1.73;;;;;;;5.77;91.87;99979.00;4970478;28;20061;-62
2024/02/07 12:11:08;;;;;;;7.80;1.48;;;;;;;5.81;91.80;99977.19;4987557;28;20053;-61
2024/02/07 12:13:37;;;;;;;13.70;2.17;;;;;;;5.82;91.50;99981.56;4987593;28;20039;-61
2024/02/07 12:16:08;;;;;;;14.38;1.95;;;;;;;5.86;91.48;99988.03;4987378;28;20046;-61
2024/02/07 12:18:36;;;;;;;14.93;2.95;;;;;;;5.89;91.19;99979.13;4988177;28;20508;-61
2024/02/07 12:21:04;;;;;;;9.95;2.35;;;;;;;5.89;90.92;99984.63;4987180;28;20064;-61
2024/02/07 12:23:33;;;;;;;10.32;1.83;;;;;;;5.91;90.81;99991.38;4987504;28;20073;-62
2024/02/07 12:26:03;;;;;;;13.60;2.17;;;;;;;5.89;90.56;99990.91;4987688;28;20043;-61
2024/02/07 12:28:31;;;;;;;7.20;1.77;;;;;;;5.90;90.29;99991.72;4988058;28;20447;-62
2024/02/07 12:30:59;;;;;;;4.78;1.70;;;;;;;5.91;90.31;99990.56;4986794;28;20058;-62
2024/02/07 12:33:28;;;;;;;6.10;1.63;;;;;;;5.91;89.83;99976.84;4987834;28;20051;-62
2024/02/07 12:36:03;;;;;;;8.75;2.10;;;;;;;5.93;89.87;99988.31;4987641;28;20061;-62
2024/02/07 12:38:31;;;;;;;11.63;1.88;;;;;;;5.96;90.01;99984.88;4987472;28;20057;-61
2024/02/07 12:41:00;;;;;;;7.75;1.80;;;;;;;6.00;89.71;99985.84;4987483;28;20050;-62